createdAt,value
2019-02-14T00:00:37.429Z,6.23
2019-02-14T00:03:04.864Z,6.63
2019-02-14T00:05:32.131Z,6.83
2019-02-14T00:07:59.515Z,6.10
2019-02-14T00:10:26.901Z,6.60
2019-02-14T00:12:54.205Z,6.13
2019-02-14T00:15:21.562Z,6.00
2019-02-14T00:17:48.865Z,6.93
2019-02-14T00:20:16.733Z,6.57
2019-02-14T00:22:44.102Z,6.50
2019-02-14T00:25:11.457Z,7.30
2019-02-14T00:27:38.806Z,7.63
2019-02-14T00:30:06.669Z,5.77
2019-02-14T00:32:34.025Z,6.83
2019-02-14T00:35:01.487Z,6.33
2019-02-14T00:37:28.843Z,6.80
2019-02-14T00:39:56.463Z,6.53
2019-02-14T00:42:23.987Z,6.73
2019-02-14T00:44:51.539Z,6.83
2019-02-14T00:47:18.867Z,6.00
2019-02-14T00:49:46.189Z,6.50
2019-02-14T00:52:13.597Z,6.43
2019-02-14T00:54:40.996Z,6.80
2019-02-14T00:57:08.425Z,7.20
2019-02-14T00:59:35.709Z,6.60
2019-02-14T01:02:03.028Z,7.00
2019-02-14T01:04:30.515Z,6.83
2019-02-14T01:06:57.855Z,7.00
2019-02-14T01:09:25.287Z,7.77
2019-02-14T01:11:52.629Z,7.50
2019-02-14T01:14:20.015Z,6.57
2019-02-14T01:16:47.347Z,6.87
2019-02-14T01:19:15.517Z,6.97
2019-02-14T01:21:42.898Z,6.83
2019-02-14T01:24:10.198Z,7.37
2019-02-14T01:26:37.510Z,7.07
2019-02-14T01:29:04.727Z,7.03
2019-02-14T01:31:32.043Z,8.10
2019-02-14T01:33:59.348Z,8.10
2019-02-14T01:36:26.643Z,6.53
2019-02-14T01:38:54.051Z,6.97
2019-02-14T01:41:21.604Z,6.67
2019-02-14T01:43:48.913Z,6.70
2019-02-14T01:46:16.364Z,7.03
2019-02-14T01:48:43.678Z,7.50
2019-02-14T01:51:11.064Z,7.33
2019-02-14T01:53:38.517Z,7.13
2019-02-14T01:56:05.812Z,8.17
2019-02-14T01:58:33.094Z,7.47
2019-02-14T02:01:00.416Z,7.63
2019-02-14T02:03:27.670Z,8.17
2019-02-14T02:05:54.918Z,7.40
2019-02-14T02:08:22.240Z,8.13
2019-02-14T02:10:49.646Z,7.93
2019-02-14T02:13:17.211Z,7.93
2019-02-14T02:15:44.604Z,7.53
2019-02-14T02:18:11.931Z,6.07
2019-02-14T02:20:39.222Z,6.23
2019-02-14T02:23:06.576Z,6.20
2019-02-14T02:25:34.152Z,5.20
2019-02-14T02:28:01.604Z,5.37
2019-02-14T02:30:29.035Z,4.67
2019-02-14T02:32:56.349Z,5.63
2019-02-14T02:35:23.809Z,5.93
2019-02-14T02:37:51.189Z,5.13
2019-02-14T02:40:18.552Z,5.43
2019-02-14T02:42:45.906Z,4.67
2019-02-14T02:45:13.236Z,5.60
2019-02-14T02:47:40.567Z,5.07
2019-02-14T02:50:09.908Z,5.13
2019-02-14T02:52:37.086Z,5.33
2019-02-14T02:55:04.780Z,4.77
2019-02-14T02:57:32.065Z,4.27
2019-02-14T02:59:59.301Z,4.30
2019-02-14T03:02:26.581Z,4.47
2019-02-14T03:04:54.103Z,4.80
2019-02-14T03:07:21.481Z,4.67
2019-02-14T03:09:48.774Z,4.53
2019-02-14T03:12:16.084Z,5.03
2019-02-14T03:14:43.514Z,5.67
2019-02-14T03:17:10.878Z,5.53
2019-02-14T03:19:38.318Z,5.67
2019-02-14T03:22:05.588Z,5.40
2019-02-14T03:24:32.877Z,4.97
2019-02-14T03:27:00.269Z,6.23
2019-02-14T03:29:27.601Z,6.23
2019-02-14T03:31:54.986Z,6.23
2019-02-14T03:34:22.518Z,6.20
2019-02-14T03:36:50.601Z,6.00
2019-02-14T03:39:17.973Z,5.73
2019-02-14T03:41:45.293Z,6.03
2019-02-14T03:44:12.727Z,6.53
2019-02-14T03:46:40.024Z,7.70
2019-02-14T03:49:07.459Z,7.20
2019-02-14T03:51:34.729Z,6.37
2019-02-14T03:54:02.168Z,5.90
2019-02-14T03:56:29.421Z,5.90
2019-02-14T03:58:56.767Z,5.17
2019-02-14T04:01:24.919Z,5.30
2019-02-14T04:03:52.264Z,5.63
2019-02-14T04:06:27.009Z,5.43
2019-02-14T04:08:48.838Z,5.43
2019-02-14T04:11:16.237Z,5.60
2019-02-14T04:13:43.503Z,5.57
2019-02-14T04:16:10.827Z,4.93
2019-02-14T04:18:38.418Z,5.90
2019-02-14T04:21:05.779Z,4.67
2019-02-14T04:24:12.521Z,5.70
2019-02-14T04:26:39.818Z,5.00
2019-02-14T04:29:26.834Z,4.63
2019-02-14T04:31:54.219Z,5.43
2019-02-14T04:34:21.526Z,5.20
2019-02-14T04:36:48.802Z,5.50
2019-02-14T04:39:16.153Z,6.07
2019-02-14T04:41:43.435Z,6.23
2019-02-14T04:44:10.762Z,5.83
2019-02-14T04:46:38.038Z,5.97
2019-02-14T04:49:05.318Z,6.00
2019-02-14T04:51:32.596Z,6.23
2019-02-14T04:53:59.969Z,6.00
2019-02-14T04:56:27.529Z,6.63
2019-02-14T04:58:55.062Z,5.67
2019-02-14T05:01:22.392Z,5.60
2019-02-14T05:03:49.692Z,6.67
2019-02-14T05:06:16.827Z,5.80
2019-02-14T05:08:43.887Z,6.00
2019-02-14T05:11:11.334Z,5.80
2019-02-14T05:13:38.727Z,6.00
2019-02-14T05:16:06.053Z,5.17
2019-02-14T05:18:33.527Z,5.50
2019-02-14T05:21:01.030Z,5.40
2019-02-14T05:23:28.364Z,5.50
2019-02-14T05:25:55.604Z,5.57
2019-02-14T05:28:23.092Z,5.97
2019-02-14T05:30:50.493Z,7.23
2019-02-14T05:33:17.938Z,6.80
2019-02-14T05:35:45.308Z,6.13
2019-02-14T05:38:12.746Z,5.87
2019-02-14T05:40:40.206Z,6.80
2019-02-14T05:43:07.839Z,5.90
2019-02-14T05:45:35.250Z,6.70
2019-02-14T05:48:02.649Z,5.13
2019-02-14T05:50:30.012Z,4.73
2019-02-14T05:52:57.418Z,4.80
2019-02-14T05:55:24.789Z,5.53
2019-02-14T05:57:52.177Z,4.67
2019-02-14T06:00:21.634Z,5.10
2019-02-14T06:02:49.131Z,5.33
2019-02-14T06:05:16.540Z,5.40
2019-02-14T06:07:43.890Z,5.77
2019-02-14T06:10:11.220Z,6.07
2019-02-14T06:12:38.713Z,5.83
2019-02-14T06:15:06.742Z,5.73
2019-02-14T06:17:33.949Z,7.03
2019-02-14T06:20:01.162Z,6.90
2019-02-14T06:22:28.505Z,6.70
2019-02-14T06:24:55.853Z,6.50
2019-02-14T06:27:23.664Z,7.00
2019-02-14T06:29:51.087Z,7.23
2019-02-14T06:32:18.422Z,6.67
2019-02-14T06:34:45.880Z,7.87
2019-02-14T06:37:13.294Z,6.47
2019-02-14T06:39:40.758Z,6.30
2019-02-14T06:42:07.866Z,6.97
2019-02-14T06:44:35.123Z,6.57
2019-02-14T06:47:02.566Z,6.63
2019-02-14T06:49:30.010Z,6.33
2019-02-14T06:51:57.541Z,6.33
2019-02-14T06:54:24.789Z,6.20
2019-02-14T06:56:52.164Z,6.60
2019-02-14T06:59:19.543Z,6.43
2019-02-14T07:01:47.325Z,6.87
2019-02-14T07:04:14.751Z,6.87
2019-02-14T07:06:42.019Z,6.47
2019-02-14T07:09:09.405Z,6.17
2019-02-14T07:11:36.733Z,6.87
2019-02-14T07:14:04.060Z,7.17
2019-02-14T07:16:31.423Z,7.17
2019-02-14T07:18:58.718Z,7.50
2019-02-14T07:21:25.982Z,7.30
2019-02-14T07:23:53.293Z,7.80
2019-02-14T07:26:20.621Z,9.00
2019-02-14T07:28:47.850Z,7.40
2019-02-14T07:31:15.178Z,6.97
2019-02-14T07:33:42.485Z,7.27
2019-02-14T07:36:10.129Z,7.97
2019-02-14T07:38:37.398Z,6.90
2019-02-14T07:41:04.980Z,6.57
2019-02-14T07:43:32.296Z,6.63
2019-02-14T07:45:59.592Z,6.40
2019-02-14T07:48:26.902Z,6.23
2019-02-14T07:50:54.374Z,8.80
2019-02-14T07:53:21.746Z,6.83
2019-02-14T07:55:49.082Z,6.73
2019-02-14T07:58:16.673Z,6.83
2019-02-14T08:00:43.970Z,6.00
2019-02-14T08:03:11.438Z,6.37
2019-02-14T08:05:38.687Z,7.13
2019-02-14T08:08:06.019Z,7.10
2019-02-14T08:10:33.280Z,8.30
2019-02-14T08:13:03.573Z,7.80
2019-02-14T08:15:30.960Z,7.93
2019-02-14T08:17:58.234Z,6.47
2019-02-14T08:20:25.452Z,6.70
2019-02-14T08:22:52.821Z,6.57
2019-02-14T08:25:20.070Z,6.80
2019-02-14T08:27:47.299Z,6.97
2019-02-14T08:30:14.778Z,6.80
2019-02-14T08:32:42.050Z,7.03
2019-02-14T08:35:09.442Z,6.67
2019-02-14T08:37:45.003Z,5.60
2019-02-14T08:40:08.694Z,5.13
2019-02-14T08:42:36.030Z,5.53
2019-02-14T08:45:04.408Z,6.03
2019-02-14T08:47:31.704Z,5.53
2019-02-14T08:49:59.018Z,6.63
2019-02-14T08:52:26.680Z,4.73
2019-02-14T08:54:53.974Z,4.93
2019-02-14T08:57:21.307Z,6.00
2019-02-14T08:59:48.721Z,4.90
2019-02-14T09:02:16.044Z,5.40
2019-02-14T09:04:43.376Z,5.70
2019-02-14T09:07:11.393Z,5.20
2019-02-14T09:09:39.010Z,5.77
2019-02-14T09:12:06.409Z,5.97
2019-02-14T09:14:34.690Z,4.97
2019-02-14T09:17:02.098Z,3.87
2019-02-14T09:19:29.432Z,4.97
2019-02-14T09:21:56.741Z,5.03
2019-02-14T09:24:24.411Z,4.30
2019-02-14T09:26:51.812Z,4.87
2019-02-14T09:29:19.159Z,4.97
2019-02-14T09:31:46.538Z,4.40
2019-02-14T09:34:13.871Z,5.73
2019-02-14T09:36:41.580Z,4.10
2019-02-14T09:39:09.002Z,3.77
2019-02-14T09:41:36.347Z,4.30
2019-02-14T09:44:03.786Z,4.83
2019-02-14T09:46:31.228Z,5.53
2019-02-14T09:48:58.608Z,6.90
2019-02-14T09:51:26.009Z,4.63
2019-02-14T09:53:53.389Z,4.20
2019-02-14T09:56:20.747Z,4.40
2019-02-14T09:58:48.511Z,5.23
2019-02-14T10:01:15.947Z,5.30
2019-02-14T10:03:43.345Z,5.13
2019-02-14T10:06:10.755Z,5.50
2019-02-14T10:08:38.156Z,4.97
2019-02-14T10:11:05.360Z,6.17
2019-02-14T10:13:32.643Z,4.63
2019-02-14T10:16:00.053Z,4.17
2019-02-14T10:18:27.443Z,4.07
2019-02-14T10:20:54.817Z,5.47
2019-02-14T10:23:22.114Z,4.30
2019-02-14T10:25:49.529Z,5.57
2019-02-14T10:28:16.964Z,5.23
2019-02-14T10:30:44.467Z,6.90
2019-02-14T10:33:11.782Z,5.03
2019-02-14T10:35:39.105Z,4.70
2019-02-14T10:38:06.471Z,3.57
2019-02-14T10:40:33.785Z,4.33
2019-02-14T10:43:01.160Z,3.27
2019-02-14T10:45:28.622Z,5.23
2019-02-14T10:47:56.010Z,4.90
2019-02-14T10:50:23.295Z,4.23
2019-02-14T10:52:50.608Z,4.27
2019-02-14T10:55:17.937Z,4.30
2019-02-14T10:57:45.396Z,3.50
2019-02-14T11:00:16.880Z,3.83
2019-02-14T11:02:44.749Z,3.70
2019-02-14T11:05:13.691Z,5.80
2019-02-14T11:07:41.030Z,3.37
2019-02-14T11:10:09.019Z,4.33
2019-02-14T11:12:36.541Z,5.10
2019-02-14T11:15:06.718Z,3.77
2019-02-14T11:17:34.123Z,5.00
2019-02-14T11:20:01.429Z,3.67
2019-02-14T11:22:28.730Z,3.77
2019-02-14T11:24:56.074Z,4.03
2019-02-14T11:27:23.459Z,4.93
2019-02-14T11:29:50.824Z,3.50
2019-02-14T11:32:18.128Z,5.10
2019-02-14T11:34:45.666Z,3.27
2019-02-14T11:37:13.116Z,3.57
2019-02-14T11:39:40.536Z,3.80
2019-02-14T11:42:08.008Z,3.20
2019-02-14T11:44:39.834Z,3.50
2019-02-14T11:47:04.759Z,2.60
2019-02-14T11:49:32.098Z,2.47
2019-02-14T11:51:59.429Z,2.40
2019-02-14T11:54:26.732Z,3.23
2019-02-14T11:56:54.210Z,2.87
2019-02-14T11:59:21.643Z,2.40
2019-02-14T12:01:55.150Z,3.10
2019-02-14T12:04:18.071Z,2.73
2019-02-14T12:06:45.511Z,2.50
2019-02-14T12:09:12.995Z,2.70
2019-02-14T12:11:40.401Z,5.27
2019-02-14T12:14:07.704Z,2.70
2019-02-14T12:16:35.104Z,3.20
2019-02-14T12:19:02.504Z,3.20
2019-02-14T12:21:29.906Z,4.43
2019-02-14T12:23:57.311Z,3.20
2019-02-14T12:26:24.697Z,4.63
2019-02-14T12:28:52.083Z,4.83
2019-02-14T12:31:19.364Z,3.80
2019-02-14T12:33:46.739Z,4.50
2019-02-14T12:36:14.197Z,3.77
2019-02-14T12:38:41.476Z,3.07
2019-02-14T12:41:08.783Z,3.97
2019-02-14T12:43:36.192Z,5.17
2019-02-14T12:46:03.617Z,3.90
2019-02-14T12:48:31.008Z,4.17
2019-02-14T12:50:58.415Z,5.10
2019-02-14T12:53:25.671Z,7.27
2019-02-14T12:55:53.143Z,6.00
2019-02-14T12:58:20.566Z,4.83
2019-02-14T13:00:48.038Z,4.10
2019-02-14T13:03:15.395Z,4.67
2019-02-14T13:05:42.676Z,4.43
2019-02-14T13:08:10.095Z,4.90
2019-02-14T13:10:37.536Z,5.37
2019-02-14T13:13:04.923Z,3.73
2019-02-14T13:15:32.242Z,3.60
2019-02-14T13:17:59.558Z,3.17
2019-02-14T13:20:26.831Z,3.37
2019-02-14T13:22:54.137Z,3.63
2019-02-14T13:25:21.471Z,2.90
2019-02-14T13:27:48.812Z,4.13
2019-02-14T13:30:19.145Z,3.93
2019-02-14T13:32:46.465Z,5.60
2019-02-14T13:35:13.855Z,3.40
2019-02-14T13:37:41.438Z,3.07
2019-02-14T13:40:08.833Z,3.30
2019-02-14T13:42:36.178Z,3.50
2019-02-14T13:45:03.785Z,3.20
2019-02-14T13:47:31.219Z,3.10
2019-02-14T13:49:58.710Z,3.80
2019-02-14T13:52:26.369Z,3.77
2019-02-14T13:54:53.797Z,3.17
2019-02-14T13:57:21.430Z,3.43
2019-02-14T13:59:48.740Z,4.00
2019-02-14T14:02:16.160Z,4.17
2019-02-14T14:04:44.821Z,3.23
2019-02-14T14:07:12.388Z,3.57
2019-02-14T14:09:39.738Z,5.23
2019-02-14T14:12:07.109Z,3.70
2019-02-14T14:14:34.489Z,4.50
2019-02-14T14:17:01.814Z,4.63
2019-02-14T14:19:30.495Z,4.27
2019-02-14T14:21:57.944Z,7.17
2019-02-14T14:24:25.281Z,4.30
2019-02-14T14:26:52.563Z,4.43
2019-02-14T14:29:19.932Z,5.83
2019-02-14T14:31:47.345Z,5.20
2019-02-14T14:34:14.634Z,6.33
2019-02-14T14:36:41.970Z,4.87
2019-02-14T14:39:09.329Z,5.47
2019-02-14T14:41:36.775Z,5.87
2019-02-14T14:44:25.920Z,5.93
2019-02-14T14:46:57.105Z,5.80
2019-02-14T14:49:24.527Z,5.60
2019-02-14T14:51:51.858Z,7.13
2019-02-14T14:54:19.277Z,5.70
2019-02-14T14:56:46.648Z,7.67
2019-02-14T14:59:14.039Z,6.73
2019-02-14T15:01:41.390Z,6.03
2019-02-14T15:04:08.841Z,5.13
2019-02-14T15:06:36.255Z,5.63
2019-02-14T15:09:05.810Z,5.70
2019-02-14T15:11:33.215Z,9.13
2019-02-14T15:14:00.646Z,6.10
2019-02-14T15:16:28.084Z,6.10
2019-02-14T15:18:55.540Z,4.87
2019-02-14T15:21:22.930Z,5.23
2019-02-14T15:23:50.255Z,5.43
2019-02-14T15:26:17.544Z,4.87
2019-02-14T15:28:45.319Z,4.60
2019-02-14T15:31:12.609Z,4.87
2019-02-14T15:33:43.199Z,5.33
2019-02-14T15:36:10.701Z,3.80
2019-02-14T15:38:38.178Z,4.37
2019-02-14T15:41:05.542Z,5.77
2019-02-14T15:43:32.898Z,5.10
2019-02-14T15:46:00.253Z,6.80
2019-02-14T15:48:27.538Z,4.53
2019-02-14T15:50:56.741Z,5.17
2019-02-14T15:53:23.827Z,5.60
2019-02-14T15:55:51.239Z,5.17
2019-02-14T15:58:18.562Z,5.10
2019-02-14T16:00:45.909Z,8.20
2019-02-14T16:03:15.309Z,5.73
2019-02-14T16:05:42.733Z,4.83
2019-02-14T16:08:10.178Z,5.47
2019-02-14T16:10:37.503Z,3.97
2019-02-14T16:13:05.814Z,6.23
2019-02-14T16:15:34.071Z,6.67
2019-02-14T16:18:01.722Z,8.30
2019-02-14T16:20:29.209Z,7.47
2019-02-14T16:22:56.611Z,6.30
2019-02-14T16:25:23.886Z,8.27
2019-02-14T16:27:51.049Z,7.07
2019-02-14T16:30:18.411Z,7.50
2019-02-14T16:32:45.834Z,6.53
2019-02-14T16:35:13.289Z,7.53
2019-02-14T16:37:40.686Z,7.97
2019-02-14T16:40:10.302Z,8.13
2019-02-14T16:42:37.672Z,6.53
2019-02-14T16:45:05.249Z,7.43
2019-02-14T16:47:32.738Z,7.50
2019-02-14T16:50:00.343Z,8.97
2019-02-14T16:52:27.728Z,9.00
2019-02-14T16:54:55.052Z,8.63
2019-02-14T16:57:22.480Z,6.63
2019-02-14T16:59:49.934Z,8.23
2019-02-14T17:02:17.411Z,6.77
2019-02-14T17:04:44.773Z,6.70
2019-02-14T17:07:11.979Z,7.37
2019-02-14T17:09:39.321Z,7.10
2019-02-14T17:12:07.553Z,7.87
2019-02-14T17:14:34.979Z,6.97
2019-02-14T17:17:02.324Z,7.00
2019-02-14T17:19:29.676Z,8.30
2019-02-14T17:21:57.128Z,9.03
2019-02-14T17:24:24.466Z,6.30
2019-02-14T17:26:51.773Z,6.93
2019-02-14T17:29:19.043Z,7.87
2019-02-14T17:31:46.394Z,9.53
2019-02-14T17:34:13.952Z,7.80
2019-02-14T17:36:42.025Z,7.43
2019-02-14T17:39:10.099Z,8.73
2019-02-14T17:41:37.475Z,9.40
2019-02-14T17:44:04.802Z,8.27
2019-02-14T17:46:32.100Z,10.13
2019-02-14T17:48:59.601Z,8.97
2019-02-14T17:51:26.960Z,10.40
2019-02-14T17:53:54.380Z,10.97
2019-02-14T17:56:21.739Z,8.17
2019-02-14T17:58:49.158Z,7.47
2019-02-14T18:01:16.585Z,7.67
2019-02-14T18:03:43.861Z,8.83
2019-02-14T18:06:11.285Z,6.97
2019-02-14T18:08:38.699Z,11.70
2019-02-14T18:11:06.188Z,9.20
2019-02-14T18:13:33.554Z,8.53
2019-02-14T18:16:00.875Z,9.03
2019-02-14T18:18:28.262Z,9.57
2019-02-14T18:20:55.674Z,7.63
2019-02-14T18:23:23.241Z,8.77
2019-02-14T18:26:10.197Z,8.67
2019-02-14T18:28:37.509Z,8.53
2019-02-14T18:31:04.723Z,8.20
2019-02-14T18:33:50.251Z,9.67
2019-02-14T18:36:19.078Z,7.73
2019-02-14T18:38:46.688Z,11.83
2019-02-14T18:41:15.764Z,8.40
2019-02-14T18:43:43.088Z,8.43
2019-02-14T18:46:10.426Z,8.90
2019-02-14T18:48:38.174Z,9.73
2019-02-14T18:51:05.595Z,8.60
2019-02-14T18:53:33.104Z,8.03
2019-02-14T18:56:01.085Z,8.83
2019-02-14T18:58:28.693Z,9.87
2019-02-14T19:00:56.454Z,11.15
2019-02-14T19:03:24.047Z,11.27
2019-02-14T19:05:51.514Z,13.43
2019-02-14T19:08:18.856Z,13.17
2019-02-14T19:10:46.337Z,12.80
2019-02-14T19:16:33.551Z,12.20
2019-02-14T19:19:01.293Z,11.33
2019-02-14T19:21:28.885Z,14.77
2019-02-14T19:23:56.321Z,11.90
2019-02-14T19:26:23.804Z,12.00
2019-02-14T19:28:51.157Z,11.60
2019-02-14T19:31:18.699Z,11.30
2019-02-14T19:33:46.246Z,12.00
2019-02-14T19:36:13.713Z,12.90
2019-02-14T19:38:41.066Z,11.73
2019-02-14T19:41:08.479Z,11.23
2019-02-14T19:43:36.026Z,12.80
2019-02-14T19:46:03.525Z,10.13
2019-02-14T19:48:30.913Z,9.93
2019-02-14T19:50:58.388Z,9.47
2019-02-14T19:53:26.651Z,9.93
2019-02-14T19:55:54.448Z,11.00
2019-02-14T19:58:22.115Z,9.73
2019-02-14T20:00:49.801Z,10.10
2019-02-14T20:03:17.144Z,10.03
2019-02-14T20:05:45.248Z,9.10
2019-02-14T20:08:12.854Z,9.70
2019-02-14T20:10:40.448Z,8.77
2019-02-14T20:13:17.090Z,8.27
2019-02-14T20:15:44.638Z,7.97
2019-02-14T20:18:12.077Z,9.27
2019-02-14T20:20:39.576Z,9.40
2019-02-14T20:23:07.276Z,9.33
2019-02-14T20:25:34.807Z,9.97
2019-02-14T20:28:02.330Z,10.43
2019-02-14T20:30:29.684Z,9.93
2019-02-14T20:33:04.490Z,10.87
2019-02-14T20:35:26.641Z,8.77
2019-02-14T20:37:54.190Z,11.00
2019-02-14T20:40:21.582Z,10.67
2019-02-14T20:42:49.058Z,9.57
2019-02-14T20:45:16.720Z,10.53
2019-02-14T20:47:44.351Z,9.50
2019-02-14T20:50:12.890Z,9.97
2019-02-14T20:52:40.373Z,8.93
2019-02-14T20:55:09.831Z,8.97
2019-02-14T20:57:37.413Z,7.90
2019-02-14T21:00:07.734Z,9.27
2019-02-14T21:02:35.183Z,8.27
2019-02-14T21:05:02.679Z,7.17
2019-02-14T21:07:30.903Z,8.20
2019-02-14T21:09:59.642Z,7.20
2019-02-14T21:12:27.694Z,7.60
2019-02-14T21:14:55.562Z,7.80
2019-02-14T21:17:23.515Z,8.87
2019-02-14T21:19:52.422Z,8.13
2019-02-14T21:22:26.662Z,7.13
2019-02-14T21:24:55.040Z,7.20
2019-02-14T21:27:22.658Z,7.23
2019-02-14T21:29:50.135Z,6.70
2019-02-14T21:32:17.900Z,6.73
2019-02-14T21:34:45.970Z,6.33
2019-02-14T21:37:14.042Z,9.17
2019-02-14T21:39:41.671Z,7.37
2019-02-14T21:42:20.842Z,6.60
2019-02-14T21:44:42.242Z,5.43
2019-02-14T21:47:10.002Z,6.20
2019-02-14T21:49:38.982Z,5.97
2019-02-14T21:52:06.762Z,5.73
2019-02-14T21:54:34.358Z,5.57
2019-02-14T21:57:02.006Z,6.53
2019-02-14T21:59:29.870Z,6.13
2019-02-14T22:01:57.974Z,6.63
2019-02-14T22:04:26.300Z,6.17
2019-02-14T22:06:53.749Z,6.50
2019-02-14T22:09:21.213Z,8.13
2019-02-14T22:11:48.736Z,8.10
2019-02-14T22:14:16.249Z,6.43
2019-02-14T22:16:43.822Z,7.03
2019-02-14T22:19:12.661Z,6.57
2019-02-14T22:21:40.043Z,6.90
2019-02-14T22:24:08.840Z,7.13
2019-02-14T22:26:36.277Z,6.53
2019-02-14T22:29:03.673Z,6.73
2019-02-14T22:31:31.295Z,7.40
2019-02-14T22:33:58.948Z,7.07
2019-02-14T22:36:29.167Z,6.50
2019-02-14T22:38:56.562Z,6.70
2019-02-14T22:41:23.945Z,6.00
2019-02-14T22:43:51.196Z,7.57
2019-02-14T22:46:18.654Z,6.40
2019-02-14T22:48:46.099Z,6.40
2019-02-14T22:51:13.567Z,6.40
2019-02-14T22:53:40.964Z,6.13
2019-02-14T22:56:08.347Z,5.90
2019-02-14T22:58:35.847Z,6.67
2019-02-14T23:01:03.709Z,5.80
2019-02-14T23:03:31.135Z,6.70
2019-02-14T23:05:59.508Z,6.20
2019-02-14T23:08:26.901Z,6.17
2019-02-14T23:10:54.258Z,6.30
2019-02-14T23:13:21.718Z,5.80
2019-02-14T23:15:49.055Z,5.40
2019-02-14T23:18:16.390Z,6.47
2019-02-14T23:20:44.487Z,6.70
2019-02-14T23:23:12.002Z,5.30
2019-02-14T23:25:39.308Z,4.80
2019-02-14T23:28:06.894Z,6.43
2019-02-14T23:30:34.176Z,6.70
2019-02-14T23:33:01.584Z,6.77
2019-02-14T23:35:29.124Z,6.00
2019-02-14T23:37:56.900Z,6.17
2019-02-14T23:40:27.161Z,5.90
2019-02-14T23:43:04.835Z,5.70
2019-02-14T23:45:29.198Z,6.27
2019-02-14T23:47:56.526Z,7.00
2019-02-14T23:50:24.035Z,5.50
2019-02-14T23:52:51.466Z,6.27
2019-02-14T23:55:18.874Z,5.63
2019-02-14T23:57:46.190Z,7.13
